createdAt,value
2022-10-18T00:00:29.334Z,7.55
2022-10-18T00:02:56.700Z,6.82
2022-10-18T00:05:24.139Z,7.00
2022-10-18T00:07:54.409Z,7.25
2022-10-18T00:10:21.846Z,6.70
2022-10-18T00:12:49.341Z,6.90
2022-10-18T00:15:16.754Z,6.25
2022-10-18T00:17:45.772Z,9.32
2022-10-18T00:20:13.710Z,6.72
2022-10-18T00:22:42.795Z,6.60
2022-10-18T00:25:11.369Z,6.90
2022-10-18T00:27:38.906Z,7.07
2022-10-18T00:30:10.212Z,6.68
2022-10-18T00:32:38.156Z,7.15
2022-10-18T00:35:07.820Z,6.50
2022-10-18T00:37:35.722Z,7.32
2022-10-18T00:40:03.126Z,5.93
2022-10-18T00:42:32.211Z,6.32
2022-10-18T00:45:14.977Z,6.53
2022-10-18T00:47:42.762Z,8.50
2022-10-18T00:50:11.695Z,6.95
2022-10-18T00:52:40.757Z,6.60
2022-10-18T00:55:08.924Z,6.55
2022-10-18T00:57:37.512Z,7.05
2022-10-18T01:00:09.581Z,6.55
2022-10-18T01:02:37.466Z,7.22
2022-10-18T01:05:05.348Z,6.35
2022-10-18T01:07:41.936Z,7.40
2022-10-18T01:10:15.826Z,6.63
2022-10-18T01:12:48.581Z,7.53
2022-10-18T01:15:19.644Z,6.35
2022-10-18T01:17:52.646Z,6.68
2022-10-18T01:20:29.797Z,7.43
2022-10-18T01:23:01.992Z,7.28
2022-10-18T01:25:35.618Z,7.47
2022-10-18T01:28:09.202Z,7.20
2022-10-18T01:30:42.946Z,7.10
2022-10-18T01:33:17.142Z,6.90
2022-10-18T01:35:48.305Z,6.65
2022-10-18T01:38:17.936Z,6.88
2022-10-18T01:40:46.710Z,6.68
2022-10-18T01:43:14.787Z,6.70
2022-10-18T01:45:43.865Z,6.65
2022-10-18T01:48:12.680Z,6.97
2022-10-18T01:50:40.106Z,6.45
2022-10-18T01:53:21.887Z,6.38
2022-10-18T01:55:52.202Z,6.32
2022-10-18T01:58:21.848Z,6.57
2022-10-18T02:00:51.714Z,6.45
2022-10-18T02:03:22.350Z,5.72
2022-10-18T02:05:52.787Z,6.25
2022-10-18T02:08:24.869Z,5.72
2022-10-18T02:10:54.688Z,6.50
2022-10-18T02:13:23.328Z,5.95
2022-10-18T02:15:55.303Z,5.90
2022-10-18T02:18:25.472Z,5.70
2022-10-18T02:20:52.886Z,5.88
2022-10-18T02:23:24.198Z,6.28
2022-10-18T02:25:51.930Z,5.82
2022-10-18T02:28:19.604Z,5.50
2022-10-18T02:30:54.499Z,6.20
2022-10-18T02:33:28.702Z,5.38
2022-10-18T02:36:02.223Z,6.78
2022-10-18T02:38:30.447Z,6.05
2022-10-18T02:40:57.908Z,5.45
2022-10-18T02:43:28.335Z,5.85
2022-10-18T02:45:55.739Z,5.30
2022-10-18T02:48:24.588Z,5.70
2022-10-18T02:50:51.961Z,5.78
2022-10-18T02:53:19.495Z,5.30
2022-10-18T02:55:46.979Z,6.63
2022-10-18T02:58:19.857Z,6.10
2022-10-18T03:00:50.200Z,5.72
2022-10-18T03:03:17.619Z,6.20
2022-10-18T03:05:46.478Z,5.40
2022-10-18T03:08:13.900Z,6.20
2022-10-18T03:10:41.327Z,5.53
2022-10-18T03:13:08.889Z,5.30
2022-10-18T03:15:36.424Z,6.55
2022-10-18T03:18:04.062Z,5.78
2022-10-18T03:20:31.482Z,5.18
2022-10-18T03:23:00.298Z,6.07
2022-10-18T03:25:27.745Z,5.35
2022-10-18T03:27:55.144Z,5.95
2022-10-18T03:30:22.546Z,5.93
2022-10-18T03:32:49.968Z,5.60
2022-10-18T03:35:17.469Z,5.63
2022-10-18T03:37:44.891Z,5.30
2022-10-18T03:40:13.815Z,5.53
2022-10-18T03:42:41.227Z,5.68
2022-10-18T03:45:11.945Z,5.53
2022-10-18T03:47:39.378Z,5.70
2022-10-18T03:50:07.065Z,5.63
2022-10-18T03:52:34.616Z,6.05
2022-10-18T03:55:02.439Z,6.00
2022-10-18T03:57:31.291Z,5.90
2022-10-18T03:59:58.839Z,6.53
2022-10-18T04:02:26.342Z,5.85
2022-10-18T04:04:53.937Z,5.40
2022-10-18T04:07:21.389Z,6.05
2022-10-18T04:09:48.866Z,5.97
2022-10-18T04:12:16.354Z,5.80
2022-10-18T04:14:45.120Z,5.43
2022-10-18T04:17:12.565Z,6.13
2022-10-18T04:19:40.948Z,6.20
2022-10-18T04:22:08.477Z,5.65
2022-10-18T04:24:36.146Z,6.15
2022-10-18T04:27:04.216Z,6.20
2022-10-18T04:29:31.967Z,5.13
2022-10-18T04:32:00.840Z,5.65
2022-10-18T04:34:28.633Z,5.75
2022-10-18T04:36:56.220Z,5.13
2022-10-18T04:39:23.678Z,4.95
2022-10-18T04:41:51.092Z,5.40
2022-10-18T04:44:18.553Z,5.53
2022-10-18T04:46:46.065Z,5.78
2022-10-18T04:49:14.858Z,5.38
2022-10-18T04:51:42.307Z,6.40
2022-10-18T04:54:09.811Z,6.32
2022-10-18T04:56:37.352Z,6.32
2022-10-18T04:59:04.796Z,5.72
2022-10-18T05:01:32.241Z,6.43
2022-10-18T05:03:59.733Z,6.18
2022-10-18T05:06:28.501Z,6.93
2022-10-18T05:08:55.932Z,6.53
2022-10-18T05:11:23.413Z,6.10
2022-10-18T05:13:51.050Z,6.38
2022-10-18T05:16:18.504Z,6.22
2022-10-18T05:18:46.381Z,6.18
2022-10-18T05:21:13.778Z,5.53
2022-10-18T05:23:42.710Z,5.70
2022-10-18T05:26:10.198Z,6.03
2022-10-18T05:28:40.042Z,5.82
2022-10-18T05:31:08.999Z,6.88
2022-10-18T05:33:36.725Z,6.72
2022-10-18T05:36:04.363Z,6.72
2022-10-18T05:38:31.952Z,6.95
2022-10-18T05:41:00.931Z,7.20
2022-10-18T05:43:28.578Z,7.13
2022-10-18T05:45:55.972Z,7.43
2022-10-18T05:48:23.627Z,7.35
2022-10-18T05:50:51.286Z,7.10
2022-10-18T05:53:35.845Z,7.07
2022-10-18T05:56:05.624Z,7.40
2022-10-18T05:58:33.024Z,6.05
2022-10-18T06:01:01.074Z,6.93
2022-10-18T06:03:30.474Z,6.43
2022-10-18T06:06:00.292Z,7.32
2022-10-18T06:08:27.968Z,6.60
2022-10-18T06:10:55.444Z,7.45
2022-10-18T06:13:24.261Z,7.10
2022-10-18T06:15:51.798Z,6.95
2022-10-18T06:18:19.308Z,6.55
2022-10-18T06:20:46.777Z,7.03
2022-10-18T06:23:14.208Z,6.78
2022-10-18T06:25:41.686Z,7.22
2022-10-18T06:28:11.513Z,7.50
2022-10-18T06:30:41.068Z,7.65
2022-10-18T06:33:08.517Z,7.68
2022-10-18T06:35:35.929Z,7.40
2022-10-18T06:38:03.322Z,8.20
2022-10-18T06:40:37.744Z,8.63
2022-10-18T06:43:19.953Z,7.68
2022-10-18T06:45:49.336Z,7.50
2022-10-18T06:48:17.063Z,6.85
2022-10-18T06:50:44.587Z,6.68
2022-10-18T06:53:11.991Z,6.35
2022-10-18T06:55:39.417Z,6.28
2022-10-18T06:58:06.877Z,5.88
2022-10-18T07:00:34.314Z,6.35
2022-10-18T07:03:03.062Z,6.25
2022-10-18T07:05:30.532Z,5.93
2022-10-18T07:07:58.081Z,5.55
2022-10-18T07:10:26.106Z,5.68
2022-10-18T07:13:03.082Z,6.00
2022-10-18T07:15:40.962Z,6.38
2022-10-18T07:18:09.718Z,6.00
2022-10-18T07:20:37.453Z,6.43
2022-10-18T07:23:07.069Z,5.95
2022-10-18T07:25:34.569Z,7.40
2022-10-18T07:28:02.037Z,5.90
2022-10-18T07:30:29.442Z,6.15
2022-10-18T07:32:56.882Z,6.55
2022-10-18T07:35:25.651Z,5.90
2022-10-18T07:37:53.110Z,6.90
2022-10-18T07:40:20.493Z,6.32
2022-10-18T07:42:47.986Z,5.95
2022-10-18T07:45:15.483Z,6.50
2022-10-18T07:47:42.907Z,5.28
2022-10-18T07:50:10.495Z,5.68
2022-10-18T07:52:39.239Z,5.75
2022-10-18T07:55:06.926Z,5.40
2022-10-18T07:57:34.686Z,6.20
2022-10-18T08:00:02.440Z,5.50
2022-10-18T08:02:30.100Z,5.10
2022-10-18T08:04:57.515Z,5.32
2022-10-18T08:07:24.929Z,5.55
2022-10-18T08:09:53.918Z,5.78
2022-10-18T08:12:21.565Z,4.95
2022-10-18T08:14:50.805Z,4.95
2022-10-18T08:17:18.444Z,5.78
2022-10-18T08:19:58.314Z,5.68
2022-10-18T08:22:33.364Z,5.85
2022-10-18T08:25:02.273Z,5.57
2022-10-18T08:27:29.942Z,5.80
2022-10-18T08:29:59.712Z,4.97
2022-10-18T08:32:28.409Z,5.47
2022-10-18T08:34:56.011Z,4.85
2022-10-18T08:37:23.468Z,5.53
2022-10-18T08:39:50.826Z,5.40
2022-10-18T08:42:25.057Z,5.10
2022-10-18T08:44:53.028Z,5.28
2022-10-18T08:47:21.921Z,4.22
2022-10-18T08:49:51.170Z,4.47
2022-10-18T08:52:21.954Z,4.28
2022-10-18T08:54:54.445Z,3.97
2022-10-18T08:57:23.337Z,4.38
2022-10-18T08:59:50.794Z,4.03
2022-10-18T09:02:25.274Z,4.03
2022-10-18T09:04:56.340Z,3.72
2022-10-18T09:07:45.023Z,3.63
2022-10-18T09:10:20.475Z,3.97
2022-10-18T09:13:00.494Z,3.53
2022-10-18T09:15:30.845Z,4.20
2022-10-18T09:18:05.102Z,3.75
2022-10-18T09:20:34.910Z,3.50
2022-10-18T09:23:10.385Z,3.72
2022-10-18T09:25:45.447Z,3.42
2022-10-18T09:28:27.371Z,3.13
2022-10-18T09:30:59.702Z,3.63
2022-10-18T09:33:33.234Z,3.63
2022-10-18T09:36:02.284Z,3.53
2022-10-18T09:38:31.811Z,4.80
2022-10-18T09:41:03.646Z,3.78
2022-10-18T09:43:38.246Z,3.90
2022-10-18T09:46:06.811Z,3.88
2022-10-18T09:48:37.185Z,3.95
2022-10-18T09:51:55.124Z,3.88
2022-10-18T09:54:34.824Z,4.13
2022-10-18T09:57:22.859Z,4.32
2022-10-18T09:59:52.095Z,3.85
2022-10-18T10:02:21.015Z,4.15
2022-10-18T10:04:50.024Z,3.60
2022-10-18T10:07:19.573Z,3.55
2022-10-18T10:09:52.830Z,3.63
2022-10-18T10:12:27.634Z,3.10
2022-10-18T10:15:10.203Z,3.35
2022-10-18T10:17:37.913Z,3.72
2022-10-18T10:20:06.388Z,3.45
2022-10-18T10:22:41.185Z,3.20
2022-10-18T10:25:09.074Z,3.30
2022-10-18T10:27:43.176Z,3.55
2022-10-18T10:30:24.206Z,3.20
2022-10-18T10:32:55.254Z,3.35
2022-10-18T10:35:34.006Z,3.50
2022-10-18T10:38:23.138Z,3.83
2022-10-18T10:40:51.158Z,3.65
2022-10-18T10:43:36.413Z,4.80
2022-10-18T10:46:08.262Z,4.47
2022-10-18T10:48:41.899Z,5.10
2022-10-18T10:51:10.979Z,3.80
2022-10-18T10:53:43.518Z,3.58
2022-10-18T10:56:23.418Z,3.53
2022-10-18T10:58:51.953Z,2.97
2022-10-18T11:01:22.633Z,3.17
2022-10-18T11:03:51.281Z,3.40
2022-10-18T11:06:40.208Z,3.00
2022-10-18T11:09:13.212Z,3.67
2022-10-18T11:11:42.725Z,3.30
2022-10-18T11:14:25.154Z,3.13
2022-10-18T11:16:58.105Z,2.90
2022-10-18T11:19:33.748Z,3.20
2022-10-18T11:22:02.814Z,3.08
2022-10-18T11:24:30.332Z,3.17
2022-10-18T11:27:00.405Z,6.40
2022-10-18T11:29:34.710Z,3.60
2022-10-18T11:32:07.985Z,3.17
2022-10-18T11:34:43.627Z,3.08
2022-10-18T11:37:39.491Z,3.28
2022-10-18T11:40:09.112Z,3.40
2022-10-18T11:42:41.186Z,3.05
2022-10-18T11:45:14.799Z,3.40
2022-10-18T11:47:45.694Z,3.28
2022-10-18T11:50:16.210Z,3.30
2022-10-18T11:52:48.322Z,3.75
2022-10-18T11:55:20.454Z,3.63
2022-10-18T11:57:51.715Z,3.50
2022-10-18T12:00:39.499Z,3.55
2022-10-18T12:03:25.501Z,3.20
2022-10-18T12:05:53.692Z,3.47
2022-10-18T12:08:22.922Z,3.50
2022-10-18T12:11:04.490Z,3.33
2022-10-18T12:13:35.494Z,3.30
2022-10-18T12:16:04.883Z,3.67
2022-10-18T12:18:34.633Z,3.22
2022-10-18T12:21:02.196Z,3.55
2022-10-18T12:23:38.331Z,3.33
2022-10-18T12:26:07.425Z,3.42
2022-10-18T12:28:37.434Z,3.85
2022-10-18T12:31:07.914Z,3.20
2022-10-18T12:33:39.022Z,3.95
2022-10-18T12:36:09.624Z,3.42
2022-10-18T12:38:38.948Z,3.40
2022-10-18T12:41:06.702Z,3.47
2022-10-18T12:43:36.829Z,3.25
2022-10-18T12:46:09.395Z,3.20
2022-10-18T12:48:42.971Z,3.45
2022-10-18T12:51:18.174Z,3.22
2022-10-18T12:53:47.699Z,3.13
2022-10-18T12:56:42.313Z,3.45
2022-10-18T12:59:28.261Z,3.20
2022-10-18T13:02:10.278Z,3.13
2022-10-18T13:07:40.921Z,3.28
2022-10-18T13:10:29.189Z,3.20
2022-10-18T13:13:12.202Z,3.28
2022-10-18T13:15:50.787Z,3.10
2022-10-18T13:18:24.932Z,2.80
2022-10-18T13:20:58.275Z,2.70
2022-10-18T13:23:37.055Z,3.45
2022-10-18T13:26:14.379Z,2.88
2022-10-18T13:28:46.747Z,2.80
2022-10-18T13:31:18.285Z,3.05
2022-10-18T13:33:48.945Z,2.95
2022-10-18T13:36:23.226Z,3.10
2022-10-18T13:39:02.883Z,2.72
2022-10-18T13:41:34.357Z,2.90
2022-10-18T13:44:20.689Z,3.00
2022-10-18T13:47:18.297Z,2.65
2022-10-18T13:49:55.985Z,3.47
2022-10-18T13:52:30.305Z,3.15
2022-10-18T13:55:22.357Z,3.03
2022-10-18T13:57:52.698Z,2.70
2022-10-18T14:03:56.296Z,3.13
2022-10-18T14:06:24.616Z,3.00
2022-10-18T14:08:54.907Z,2.80
2022-10-18T14:11:51.423Z,2.90
2022-10-18T14:14:28.434Z,2.72
2022-10-18T14:16:58.406Z,3.33
2022-10-18T14:19:30.113Z,3.03
2022-10-18T14:22:00.332Z,3.05
2022-10-18T14:24:28.934Z,3.22
2022-10-18T14:27:19.037Z,3.30
2022-10-18T14:29:47.261Z,3.25
2022-10-18T14:32:23.250Z,3.40
2022-10-18T14:34:51.397Z,3.25
2022-10-18T14:37:22.580Z,3.00
2022-10-18T14:39:50.101Z,3.40
2022-10-18T14:42:22.176Z,3.53
2022-10-18T14:44:54.292Z,3.70
2022-10-18T14:47:23.905Z,3.60
2022-10-18T14:49:55.991Z,3.33
2022-10-18T14:52:26.619Z,3.75
2022-10-18T14:54:55.502Z,4.03
2022-10-18T14:57:26.191Z,3.33
2022-10-18T14:59:56.924Z,3.67
2022-10-18T15:02:25.375Z,3.30
2022-10-18T15:04:57.716Z,3.40
2022-10-18T15:07:25.836Z,3.20
2022-10-18T15:09:53.355Z,3.00
2022-10-18T15:12:20.823Z,3.30
2022-10-18T15:14:50.526Z,2.88
2022-10-18T15:17:19.577Z,2.80
2022-10-18T15:19:54.991Z,3.55
2022-10-18T15:22:31.905Z,3.15
2022-10-18T15:25:21.408Z,3.00
2022-10-18T15:27:50.197Z,3.05
2022-10-18T15:30:22.228Z,3.45
2022-10-18T15:32:52.408Z,3.40
2022-10-18T15:35:25.927Z,2.88
2022-10-18T15:37:54.386Z,2.90
2022-10-18T15:40:38.215Z,3.42
2022-10-18T15:43:07.188Z,3.20
2022-10-18T15:48:19.074Z,3.67
2022-10-18T15:50:47.945Z,3.42
2022-10-18T15:53:30.313Z,3.55
2022-10-18T15:55:58.798Z,3.38
2022-10-18T15:58:30.011Z,4.25
2022-10-18T16:00:59.958Z,3.42
2022-10-18T16:03:28.090Z,3.72
2022-10-18T16:05:58.860Z,3.50
2022-10-18T16:08:28.716Z,3.72
2022-10-18T16:10:56.275Z,4.40
2022-10-18T16:13:23.769Z,3.45
2022-10-18T16:15:51.557Z,3.60
2022-10-18T16:18:20.749Z,16.10
2022-10-18T16:20:48.477Z,5.85
2022-10-18T16:23:21.145Z,4.43
2022-10-18T16:25:48.778Z,4.28
2022-10-18T16:28:17.426Z,4.05
2022-10-18T16:30:46.270Z,3.95
2022-10-18T16:33:16.711Z,4.70
2022-10-18T16:35:49.432Z,4.40
2022-10-18T16:38:26.657Z,4.18
2022-10-18T16:40:56.010Z,4.00
2022-10-18T16:43:24.146Z,4.38
2022-10-18T16:45:52.536Z,4.45
2022-10-18T16:48:21.416Z,4.10
2022-10-18T16:50:50.464Z,4.28
2022-10-18T16:53:19.503Z,4.20
2022-10-18T16:55:46.971Z,4.03
2022-10-18T16:58:16.720Z,4.45
2022-10-18T17:00:44.812Z,4.90
2022-10-18T17:03:12.694Z,4.20
2022-10-18T17:05:40.108Z,4.15
2022-10-18T17:08:15.419Z,4.18
2022-10-18T17:10:45.610Z,4.25
2022-10-18T17:13:13.091Z,3.78
2022-10-18T17:15:42.085Z,4.35
2022-10-18T17:18:11.646Z,4.05
2022-10-18T17:20:39.409Z,4.43
2022-10-18T17:23:08.762Z,4.45
2022-10-18T17:25:46.236Z,4.20
2022-10-18T17:28:25.236Z,4.43
2022-10-18T17:30:52.741Z,5.10
2022-10-18T17:33:23.383Z,4.22
2022-10-18T17:35:50.939Z,4.55
2022-10-18T17:38:18.421Z,4.88
2022-10-18T17:40:47.328Z,4.72
2022-10-18T17:43:14.758Z,4.28
2022-10-18T17:45:47.969Z,4.28
2022-10-18T17:48:15.511Z,4.05
2022-10-18T17:50:42.980Z,4.75
2022-10-18T17:53:10.722Z,4.78
2022-10-18T17:55:38.287Z,4.30
2022-10-18T17:58:07.182Z,5.07
2022-10-18T18:00:34.605Z,4.80
2022-10-18T18:03:02.394Z,4.90
2022-10-18T18:05:31.688Z,6.10
2022-10-18T18:08:02.942Z,5.72
2022-10-18T18:10:33.114Z,4.70
2022-10-18T18:13:00.730Z,5.20
2022-10-18T18:15:29.718Z,4.90
2022-10-18T18:17:58.053Z,4.60
2022-10-18T18:20:25.870Z,5.25
2022-10-18T18:22:53.462Z,5.18
2022-10-18T18:25:20.961Z,6.10
2022-10-18T18:27:48.441Z,5.07
2022-10-18T18:30:17.788Z,5.15
2022-10-18T18:32:46.731Z,5.28
2022-10-18T18:35:14.239Z,4.90
2022-10-18T18:37:41.760Z,5.07
2022-10-18T18:40:09.802Z,5.55
2022-10-18T18:42:37.373Z,5.53
2022-10-18T18:45:05.049Z,4.70
2022-10-18T18:47:35.352Z,5.80
2022-10-18T18:50:04.253Z,5.38
2022-10-18T18:52:34.485Z,5.43
2022-10-18T18:55:02.306Z,6.00
2022-10-18T18:57:30.035Z,5.68
2022-10-18T18:59:57.641Z,5.60
2022-10-18T19:02:27.108Z,5.65
2022-10-18T19:04:54.672Z,5.57
2022-10-18T19:07:23.566Z,5.60
2022-10-18T19:09:51.099Z,5.68
2022-10-18T19:12:21.531Z,5.70
2022-10-18T19:14:49.055Z,5.53
2022-10-18T19:17:16.761Z,5.78
2022-10-18T19:19:44.388Z,5.93
2022-10-18T19:22:11.866Z,6.07
2022-10-18T19:24:40.691Z,5.45
2022-10-18T19:27:09.669Z,5.88
2022-10-18T19:29:37.643Z,5.68
2022-10-18T19:32:06.406Z,5.38
2022-10-18T19:34:37.694Z,5.30
2022-10-18T19:37:05.392Z,5.50
2022-10-18T19:39:35.762Z,5.05
2022-10-18T19:42:05.358Z,5.00
2022-10-18T19:44:33.811Z,5.47
2022-10-18T19:47:01.383Z,5.53
2022-10-18T19:49:29.078Z,5.18
2022-10-18T19:51:56.991Z,5.22
2022-10-18T19:54:24.688Z,5.10
2022-10-18T19:56:52.374Z,4.82
2022-10-18T19:59:22.869Z,4.68
2022-10-18T20:01:50.685Z,4.68
2022-10-18T20:04:18.675Z,5.85
2022-10-18T20:06:46.602Z,5.13
2022-10-18T20:09:17.802Z,4.90
2022-10-18T20:11:48.188Z,5.72
2022-10-18T20:14:15.692Z,5.75
2022-10-18T20:16:44.446Z,5.13
2022-10-18T20:19:11.982Z,5.80
2022-10-18T20:21:39.919Z,5.32
2022-10-18T20:24:08.726Z,5.15
2022-10-18T20:26:37.088Z,6.07
2022-10-18T20:29:05.009Z,5.00
2022-10-18T20:31:33.918Z,5.32
2022-10-18T20:34:04.350Z,5.55
2022-10-18T20:36:33.025Z,6.05
2022-10-18T20:39:00.733Z,6.22
2022-10-18T20:41:28.975Z,5.75
2022-10-18T20:43:57.729Z,6.45
2022-10-18T20:46:28.467Z,6.95
2022-10-18T20:48:55.900Z,7.13
2022-10-18T20:51:24.809Z,6.90
2022-10-18T20:53:53.358Z,6.32
2022-10-18T20:56:21.447Z,6.28
2022-10-18T20:58:49.923Z,6.60
2022-10-18T21:01:18.304Z,5.82
2022-10-18T21:03:47.100Z,6.65
2022-10-18T21:06:15.434Z,5.68
2022-10-18T21:08:44.566Z,5.65
2022-10-18T21:11:12.500Z,6.32
2022-10-18T21:13:40.749Z,6.85
2022-10-18T21:16:08.417Z,6.88
2022-10-18T21:18:36.860Z,6.78
2022-10-18T21:21:10.792Z,5.95
2022-10-18T21:23:38.505Z,6.90
2022-10-18T21:26:07.832Z,6.25
2022-10-18T21:28:35.663Z,6.25
2022-10-18T21:31:10.716Z,6.28
2022-10-18T21:33:38.134Z,7.03
2022-10-18T21:36:05.938Z,7.82
2022-10-18T21:38:33.818Z,6.45
2022-10-18T21:41:03.160Z,6.65
2022-10-18T21:43:31.941Z,5.82
2022-10-18T21:46:00.043Z,5.93
2022-10-18T21:48:27.968Z,6.35
2022-10-18T21:50:55.431Z,6.25
2022-10-18T21:53:23.004Z,6.60
2022-10-18T21:55:50.410Z,5.93
2022-10-18T21:58:20.842Z,6.18
2022-10-18T22:00:49.663Z,6.10
2022-10-18T22:03:17.088Z,6.13
2022-10-18T22:05:44.537Z,6.15
2022-10-18T22:08:12.037Z,6.30
2022-10-18T22:10:39.465Z,5.72
2022-10-18T22:13:06.928Z,6.38
2022-10-18T22:15:34.386Z,6.72
2022-10-18T22:18:03.150Z,7.15
2022-10-18T22:20:30.611Z,5.95
2022-10-18T22:22:58.080Z,6.22
2022-10-18T22:25:25.568Z,6.10
2022-10-18T22:27:53.035Z,6.32
2022-10-18T22:30:20.458Z,7.53
2022-10-18T22:32:47.882Z,6.63
2022-10-18T22:35:16.709Z,6.13
2022-10-18T22:37:44.225Z,6.85
2022-10-18T22:40:11.883Z,6.90
2022-10-18T22:42:39.320Z,6.75
2022-10-18T22:45:07.355Z,6.15
2022-10-18T22:47:35.088Z,5.88
2022-10-18T22:50:02.677Z,6.30
2022-10-18T22:52:31.708Z,6.05
2022-10-18T22:54:59.375Z,6.13
2022-10-18T22:57:26.787Z,6.03
2022-10-18T22:59:54.256Z,5.93
2022-10-18T23:02:21.669Z,6.45
2022-10-18T23:04:49.064Z,7.07
2022-10-18T23:07:16.476Z,6.25
2022-10-18T23:09:45.257Z,6.25
2022-10-18T23:12:12.720Z,7.13
2022-10-18T23:14:40.111Z,6.75
2022-10-18T23:17:07.566Z,6.88
2022-10-18T23:19:35.010Z,7.10
2022-10-18T23:22:02.465Z,6.97
2022-10-18T23:24:29.989Z,6.45
2022-10-18T23:26:58.751Z,7.07
2022-10-18T23:29:26.219Z,7.10
2022-10-18T23:31:53.644Z,6.30
2022-10-18T23:34:21.154Z,7.25
2022-10-18T23:36:48.678Z,7.25
2022-10-18T23:39:16.146Z,6.88
2022-10-18T23:41:43.576Z,7.45
2022-10-18T23:44:12.421Z,7.65
2022-10-18T23:46:39.857Z,7.90
2022-10-18T23:49:07.287Z,7.75
2022-10-18T23:51:34.872Z,7.22
2022-10-18T23:54:02.393Z,7.97
2022-10-18T23:56:29.802Z,8.07
2022-10-18T23:58:57.230Z,8.35
